Terminal Aerodrome Forecast
Issued by NWS

Home | Current Version | Previous Version | Text Only | Print | Product List | Glossary On
Versions: 1 2 3 4 5 6 7 8 9 10 11 12
000
FTUS42 TJSJ 140527
TAFJPS
TAF
TJPS 140527Z 1406/1506 05005KT P6SM FEW030
     FM141500 13012KT P6SM FEW030 SCT060
     FM141800 15008KT P6SM VCSH FEW030
     FM142200 10005KT P6SM SCT020 SCT040
      AMD NOT SKED 1411/1503=

USA.gov is the U.S. government's official web portal to all federal, state and local government web resources and services.